sensor_id;sensor_type;location;lat;lon;timestamp;P1;durP1;ratioP1;P2;durP2;ratioP2
16352;SDS011;8286;51.274;9.542;2023-03-02T00:00:31;11.03;;;6.73;;
16352;SDS011;8286;51.274;9.542;2023-03-02T00:02:58;13.10;;;6.10;;
16352;SDS011;8286;51.274;9.542;2023-03-02T00:05:26;13.17;;;5.33;;
16352;SDS011;8286;51.274;9.542;2023-03-02T00:07:54;11.83;;;5.90;;
16352;SDS011;8286;51.274;9.542;2023-03-02T00:10:22;9.83;;;5.23;;
16352;SDS011;8286;51.274;9.542;2023-03-02T00:12:49;10.63;;;5.70;;
16352;SDS011;8286;51.274;9.542;2023-03-02T00:15:15;11.00;;;5.17;;
16352;SDS011;8286;51.274;9.542;2023-03-02T00:17:42;5.20;;;4.60;;
16352;SDS011;8286;51.274;9.542;2023-03-02T00:20:09;7.20;;;4.57;;
16352;SDS011;8286;51.274;9.542;2023-03-02T00:22:37;7.10;;;4.47;;
16352;SDS011;8286;51.274;9.542;2023-03-02T00:25:05;7.93;;;4.43;;
16352;SDS011;8286;51.274;9.542;2023-03-02T00:27:33;8.40;;;4.27;;
16352;SDS011;8286;51.274;9.542;2023-03-02T00:29:59;9.30;;;4.73;;
16352;SDS011;8286;51.274;9.542;2023-03-02T00:32:26;6.90;;;4.23;;
16352;SDS011;8286;51.274;9.542;2023-03-02T00:34:52;6.20;;;4.27;;
16352;SDS011;8286;51.274;9.542;2023-03-02T00:37:19;4.53;;;3.50;;
16352;SDS011;8286;51.274;9.542;2023-03-02T00:39:45;6.97;;;4.40;;
16352;SDS011;8286;51.274;9.542;2023-03-02T00:42:13;5.13;;;3.80;;
16352;SDS011;8286;51.274;9.542;2023-03-02T00:44:40;6.40;;;4.00;;
16352;SDS011;8286;51.274;9.542;2023-03-02T00:47:06;8.57;;;3.73;;
16352;SDS011;8286;51.274;9.542;2023-03-02T00:49:33;5.77;;;4.23;;
16352;SDS011;8286;51.274;9.542;2023-03-02T00:52:00;4.93;;;3.93;;
16352;SDS011;8286;51.274;9.542;2023-03-02T00:54:27;5.60;;;4.00;;
16352;SDS011;8286;51.274;9.542;2023-03-02T00:56:53;8.13;;;4.33;;
16352;SDS011;8286;51.274;9.542;2023-03-02T00:59:21;5.87;;;4.10;;
16352;SDS011;8286;51.274;9.542;2023-03-02T01:01:54;7.63;;;4.07;;
16352;SDS011;8286;51.274;9.542;2023-03-02T01:04:23;7.60;;;4.10;;
16352;SDS011;8286;51.274;9.542;2023-03-02T01:06:53;6.77;;;4.40;;
16352;SDS011;8286;51.274;9.542;2023-03-02T01:09:20;6.97;;;4.70;;
16352;SDS011;8286;51.274;9.542;2023-03-02T01:11:47;13.40;;;5.50;;
16352;SDS011;8286;51.274;9.542;2023-03-02T01:14:13;9.13;;;5.00;;
16352;SDS011;8286;51.274;9.542;2023-03-02T01:16:41;10.67;;;5.93;;
16352;SDS011;8286;51.274;9.542;2023-03-02T01:19:08;9.37;;;5.43;;
16352;SDS011;8286;51.274;9.542;2023-03-02T01:21:34;11.10;;;4.87;;
16352;SDS011;8286;51.274;9.542;2023-03-02T01:24:01;9.53;;;5.23;;
16352;SDS011;8286;51.274;9.542;2023-03-02T01:26:27;8.83;;;5.27;;
16352;SDS011;8286;51.274;9.542;2023-03-02T01:28:54;11.10;;;5.07;;
16352;SDS011;8286;51.274;9.542;2023-03-02T01:31:21;12.13;;;5.47;;
16352;SDS011;8286;51.274;9.542;2023-03-02T01:33:48;11.63;;;5.93;;
16352;SDS011;8286;51.274;9.542;2023-03-02T01:36:15;11.50;;;6.80;;
16352;SDS011;8286;51.274;9.542;2023-03-02T01:38:42;9.43;;;5.27;;
16352;SDS011;8286;51.274;9.542;2023-03-02T01:41:10;11.87;;;5.47;;
16352;SDS011;8286;51.274;9.542;2023-03-02T01:43:37;10.37;;;5.03;;
16352;SDS011;8286;51.274;9.542;2023-03-02T01:46:04;12.57;;;5.73;;
16352;SDS011;8286;51.274;9.542;2023-03-02T01:48:34;10.10;;;5.30;;
16352;SDS011;8286;51.274;9.542;2023-03-02T01:51:05;8.57;;;5.17;;
16352;SDS011;8286;51.274;9.542;2023-03-02T01:53:33;9.97;;;5.50;;
16352;SDS011;8286;51.274;9.542;2023-03-02T01:56:00;8.13;;;4.80;;
16352;SDS011;8286;51.274;9.542;2023-03-02T01:58:27;13.70;;;5.30;;
16352;SDS011;8286;51.274;9.542;2023-03-02T02:00:57;11.60;;;5.80;;
16352;SDS011;8286;51.274;9.542;2023-03-02T02:03:25;9.23;;;5.37;;
16352;SDS011;8286;51.274;9.542;2023-03-02T02:05:55;10.80;;;5.40;;
16352;SDS011;8286;51.274;9.542;2023-03-02T02:08:26;9.73;;;5.07;;
16352;SDS011;8286;51.274;9.542;2023-03-02T02:10:53;9.07;;;4.70;;
16352;SDS011;8286;51.274;9.542;2023-03-02T02:13:20;10.17;;;5.43;;
16352;SDS011;8286;51.274;9.542;2023-03-02T02:15:46;8.83;;;5.53;;
16352;SDS011;8286;51.274;9.542;2023-03-02T02:18:13;10.67;;;5.53;;
16352;SDS011;8286;51.274;9.542;2023-03-02T02:20:40;8.57;;;4.60;;
16352;SDS011;8286;51.274;9.542;2023-03-02T02:23:16;11.77;;;5.13;;
16352;SDS011;8286;51.274;9.542;2023-03-02T02:28:36;9.00;;;5.03;;
16352;SDS011;8286;51.274;9.542;2023-03-02T02:31:05;8.17;;;4.93;;
16352;SDS011;8286;51.274;9.542;2023-03-02T02:33:34;11.23;;;5.43;;
16352;SDS011;8286;51.274;9.542;2023-03-02T02:36:02;8.37;;;4.77;;
16352;SDS011;8286;51.274;9.542;2023-03-02T02:38:30;9.07;;;5.00;;
16352;SDS011;8286;51.274;9.542;2023-03-02T02:40:57;8.60;;;5.33;;
16352;SDS011;8286;51.274;9.542;2023-03-02T02:43:26;8.40;;;4.97;;
16352;SDS011;8286;51.274;9.542;2023-03-02T02:45:54;7.73;;;5.17;;
16352;SDS011;8286;51.274;9.542;2023-03-02T02:48:23;7.57;;;4.80;;
16352;SDS011;8286;51.274;9.542;2023-03-02T02:50:51;7.77;;;4.83;;
16352;SDS011;8286;51.274;9.542;2023-03-02T02:53:25;7.87;;;5.03;;
16352;SDS011;8286;51.274;9.542;2023-03-02T02:55:53;13.10;;;6.10;;
16352;SDS011;8286;51.274;9.542;2023-03-02T02:58:24;9.53;;;4.80;;
16352;SDS011;8286;51.274;9.542;2023-03-02T03:00:55;8.00;;;4.93;;
16352;SDS011;8286;51.274;9.542;2023-03-02T03:03:26;10.43;;;5.20;;
16352;SDS011;8286;51.274;9.542;2023-03-02T03:05:55;7.40;;;4.60;;
16352;SDS011;8286;51.274;9.542;2023-03-02T03:11:14;11.57;;;4.90;;
16352;SDS011;8286;51.274;9.542;2023-03-02T03:13:44;8.63;;;4.80;;
16352;SDS011;8286;51.274;9.542;2023-03-02T03:16:12;10.63;;;5.30;;
16352;SDS011;8286;51.274;9.542;2023-03-02T03:18:41;9.90;;;5.17;;
16352;SDS011;8286;51.274;9.542;2023-03-02T03:21:07;10.67;;;5.00;;
16352;SDS011;8286;51.274;9.542;2023-03-02T03:23:34;7.17;;;4.90;;
16352;SDS011;8286;51.274;9.542;2023-03-02T03:26:02;8.37;;;4.47;;
16352;SDS011;8286;51.274;9.542;2023-03-02T03:28:29;9.63;;;5.30;;
16352;SDS011;8286;51.274;9.542;2023-03-02T03:30:57;9.90;;;5.53;;
16352;SDS011;8286;51.274;9.542;2023-03-02T03:33:23;9.33;;;5.67;;
16352;SDS011;8286;51.274;9.542;2023-03-02T03:35:50;10.43;;;5.70;;
16352;SDS011;8286;51.274;9.542;2023-03-02T03:38:16;7.47;;;5.00;;
16352;SDS011;8286;51.274;9.542;2023-03-02T03:40:43;17.30;;;5.23;;
16352;SDS011;8286;51.274;9.542;2023-03-02T03:43:10;7.37;;;4.80;;
16352;SDS011;8286;51.274;9.542;2023-03-02T03:45:37;8.30;;;4.80;;
16352;SDS011;8286;51.274;9.542;2023-03-02T03:48:05;8.87;;;5.67;;
16352;SDS011;8286;51.274;9.542;2023-03-02T03:50:32;11.77;;;5.13;;
16352;SDS011;8286;51.274;9.542;2023-03-02T03:52:59;7.03;;;4.73;;
16352;SDS011;8286;51.274;9.542;2023-03-02T03:55:26;10.57;;;5.47;;
16352;SDS011;8286;51.274;9.542;2023-03-02T03:57:53;10.73;;;5.17;;
16352;SDS011;8286;51.274;9.542;2023-03-02T04:00:20;11.30;;;4.90;;
16352;SDS011;8286;51.274;9.542;2023-03-02T04:02:47;7.00;;;4.40;;
16352;SDS011;8286;51.274;9.542;2023-03-02T04:05:16;9.83;;;4.67;;
16352;SDS011;8286;51.274;9.542;2023-03-02T04:07:42;7.43;;;4.70;;
16352;SDS011;8286;51.274;9.542;2023-03-02T04:10:09;7.00;;;4.57;;
16352;SDS011;8286;51.274;9.542;2023-03-02T04:12:37;10.43;;;4.37;;
16352;SDS011;8286;51.274;9.542;2023-03-02T04:15:05;9.90;;;4.40;;
16352;SDS011;8286;51.274;9.542;2023-03-02T04:17:33;8.93;;;4.37;;
16352;SDS011;8286;51.274;9.542;2023-03-02T04:20:00;10.73;;;5.17;;
16352;SDS011;8286;51.274;9.542;2023-03-02T04:22:32;10.63;;;5.10;;
16352;SDS011;8286;51.274;9.542;2023-03-02T04:24:59;8.97;;;4.67;;
16352;SDS011;8286;51.274;9.542;2023-03-02T04:27:25;9.13;;;5.27;;
16352;SDS011;8286;51.274;9.542;2023-03-02T04:29:52;9.07;;;5.27;;
16352;SDS011;8286;51.274;9.542;2023-03-02T04:32:18;6.77;;;4.63;;
16352;SDS011;8286;51.274;9.542;2023-03-02T04:34:45;9.87;;;5.07;;
16352;SDS011;8286;51.274;9.542;2023-03-02T04:37:11;9.10;;;5.00;;
16352;SDS011;8286;51.274;9.542;2023-03-02T04:39:41;10.43;;;5.07;;
16352;SDS011;8286;51.274;9.542;2023-03-02T04:42:11;10.53;;;5.10;;
16352;SDS011;8286;51.274;9.542;2023-03-02T04:44:37;9.00;;;4.93;;
16352;SDS011;8286;51.274;9.542;2023-03-02T04:47:04;9.87;;;5.50;;
16352;SDS011;8286;51.274;9.542;2023-03-02T04:49:30;9.87;;;4.80;;
16352;SDS011;8286;51.274;9.542;2023-03-02T04:51:57;10.53;;;5.50;;
16352;SDS011;8286;51.274;9.542;2023-03-02T04:54:24;8.63;;;4.77;;
16352;SDS011;8286;51.274;9.542;2023-03-02T04:56:53;11.17;;;5.47;;
16352;SDS011;8286;51.274;9.542;2023-03-02T04:59:21;7.93;;;5.00;;
16352;SDS011;8286;51.274;9.542;2023-03-02T05:01:50;9.13;;;4.87;;
16352;SDS011;8286;51.274;9.542;2023-03-02T05:04:16;8.13;;;4.97;;
16352;SDS011;8286;51.274;9.542;2023-03-02T05:06:44;12.17;;;5.00;;
16352;SDS011;8286;51.274;9.542;2023-03-02T05:09:10;9.70;;;5.37;;
16352;SDS011;8286;51.274;9.542;2023-03-02T05:11:37;10.33;;;5.07;;
16352;SDS011;8286;51.274;9.542;2023-03-02T05:14:06;8.33;;;5.33;;
16352;SDS011;8286;51.274;9.542;2023-03-02T05:16:36;9.80;;;5.10;;
16352;SDS011;8286;51.274;9.542;2023-03-02T05:19:05;8.83;;;4.90;;
16352;SDS011;8286;51.274;9.542;2023-03-02T05:21:32;6.83;;;4.70;;
16352;SDS011;8286;51.274;9.542;2023-03-02T05:23:59;7.83;;;4.87;;
16352;SDS011;8286;51.274;9.542;2023-03-02T05:26:27;8.50;;;4.20;;
16352;SDS011;8286;51.274;9.542;2023-03-02T05:28:53;7.13;;;4.60;;
16352;SDS011;8286;51.274;9.542;2023-03-02T05:31:22;9.20;;;5.00;;
16352;SDS011;8286;51.274;9.542;2023-03-02T05:33:49;11.57;;;5.60;;
16352;SDS011;8286;51.274;9.542;2023-03-02T05:36:16;13.67;;;6.03;;
16352;SDS011;8286;51.274;9.542;2023-03-02T05:38:42;13.30;;;6.23;;
16352;SDS011;8286;51.274;9.542;2023-03-02T05:41:09;13.77;;;6.57;;
16352;SDS011;8286;51.274;9.542;2023-03-02T05:43:35;14.73;;;7.80;;
16352;SDS011;8286;51.274;9.542;2023-03-02T05:46:02;14.30;;;7.17;;
16352;SDS011;8286;51.274;9.542;2023-03-02T05:48:30;13.13;;;6.50;;
16352;SDS011;8286;51.274;9.542;2023-03-02T05:50:57;9.67;;;5.67;;
16352;SDS011;8286;51.274;9.542;2023-03-02T05:53:24;9.30;;;6.43;;
16352;SDS011;8286;51.274;9.542;2023-03-02T05:55:50;10.00;;;6.23;;
16352;SDS011;8286;51.274;9.542;2023-03-02T05:58:18;9.73;;;5.67;;
16352;SDS011;8286;51.274;9.542;2023-03-02T06:00:45;12.93;;;6.30;;
16352;SDS011;8286;51.274;9.542;2023-03-02T06:03:13;9.47;;;5.60;;
16352;SDS011;8286;51.274;9.542;2023-03-02T06:05:41;7.90;;;5.23;;
16352;SDS011;8286;51.274;9.542;2023-03-02T06:08:08;10.50;;;5.77;;
16352;SDS011;8286;51.274;9.542;2023-03-02T06:10:34;11.80;;;5.27;;
16352;SDS011;8286;51.274;9.542;2023-03-02T06:13:01;9.20;;;5.63;;
16352;SDS011;8286;51.274;9.542;2023-03-02T06:15:28;8.50;;;5.17;;
16352;SDS011;8286;51.274;9.542;2023-03-02T06:17:54;9.70;;;5.83;;
16352;SDS011;8286;51.274;9.542;2023-03-02T06:20:21;13.43;;;6.67;;
16352;SDS011;8286;51.274;9.542;2023-03-02T06:22:49;13.80;;;7.13;;
16352;SDS011;8286;51.274;9.542;2023-03-02T06:25:16;7.30;;;5.50;;
16352;SDS011;8286;51.274;9.542;2023-03-02T06:27:44;8.80;;;5.63;;
16352;SDS011;8286;51.274;9.542;2023-03-02T06:30:12;13.93;;;6.20;;
16352;SDS011;8286;51.274;9.542;2023-03-02T06:32:39;11.77;;;6.20;;
16352;SDS011;8286;51.274;9.542;2023-03-02T06:35:06;10.87;;;5.93;;
16352;SDS011;8286;51.274;9.542;2023-03-02T06:37:34;11.13;;;6.03;;
16352;SDS011;8286;51.274;9.542;2023-03-02T06:40:02;13.50;;;5.70;;
16352;SDS011;8286;51.274;9.542;2023-03-02T06:42:32;11.53;;;6.07;;
16352;SDS011;8286;51.274;9.542;2023-03-02T06:44:59;10.80;;;6.73;;
16352;SDS011;8286;51.274;9.542;2023-03-02T06:47:25;15.47;;;6.87;;
16352;SDS011;8286;51.274;9.542;2023-03-02T06:49:52;14.50;;;7.77;;
16352;SDS011;8286;51.274;9.542;2023-03-02T06:52:18;16.60;;;7.73;;
16352;SDS011;8286;51.274;9.542;2023-03-02T06:54:45;12.37;;;6.47;;
16352;SDS011;8286;51.274;9.542;2023-03-02T06:57:13;14.43;;;7.43;;
16352;SDS011;8286;51.274;9.542;2023-03-02T06:59:39;15.40;;;7.37;;
16352;SDS011;8286;51.274;9.542;2023-03-02T07:02:06;13.90;;;7.17;;
16352;SDS011;8286;51.274;9.542;2023-03-02T07:04:34;14.77;;;6.77;;
16352;SDS011;8286;51.274;9.542;2023-03-02T07:07:00;14.57;;;6.50;;
16352;SDS011;8286;51.274;9.542;2023-03-02T07:09:27;10.67;;;6.60;;
16352;SDS011;8286;51.274;9.542;2023-03-02T07:11:54;15.27;;;6.97;;
16352;SDS011;8286;51.274;9.542;2023-03-02T07:14:22;13.40;;;7.10;;
16352;SDS011;8286;51.274;9.542;2023-03-02T07:16:49;15.83;;;7.80;;
16352;SDS011;8286;51.274;9.542;2023-03-02T07:19:16;13.87;;;7.83;;
16352;SDS011;8286;51.274;9.542;2023-03-02T07:21:42;15.33;;;8.43;;
16352;SDS011;8286;51.274;9.542;2023-03-02T07:24:09;17.57;;;8.87;;
16352;SDS011;8286;51.274;9.542;2023-03-02T07:26:35;13.53;;;7.67;;
16352;SDS011;8286;51.274;9.542;2023-03-02T07:29:02;14.40;;;7.73;;
16352;SDS011;8286;51.274;9.542;2023-03-02T07:31:30;17.07;;;8.00;;
16352;SDS011;8286;51.274;9.542;2023-03-02T07:33:56;14.27;;;6.83;;
16352;SDS011;8286;51.274;9.542;2023-03-02T07:36:23;12.70;;;6.60;;
16352;SDS011;8286;51.274;9.542;2023-03-02T07:38:50;13.33;;;6.70;;
16352;SDS011;8286;51.274;9.542;2023-03-02T07:41:16;14.20;;;6.63;;
16352;SDS011;8286;51.274;9.542;2023-03-02T07:43:43;12.17;;;6.97;;
16352;SDS011;8286;51.274;9.542;2023-03-02T07:46:09;10.70;;;6.03;;
16352;SDS011;8286;51.274;9.542;2023-03-02T07:48:37;15.23;;;6.87;;
16352;SDS011;8286;51.274;9.542;2023-03-02T07:51:04;10.43;;;5.90;;
16352;SDS011;8286;51.274;9.542;2023-03-02T07:53:31;7.93;;;5.27;;
16352;SDS011;8286;51.274;9.542;2023-03-02T07:55:58;11.23;;;6.10;;
16352;SDS011;8286;51.274;9.542;2023-03-02T07:58:25;13.33;;;5.17;;
16352;SDS011;8286;51.274;9.542;2023-03-02T08:00:51;9.33;;;5.07;;
16352;SDS011;8286;51.274;9.542;2023-03-02T08:03:18;8.97;;;5.60;;
16352;SDS011;8286;51.274;9.542;2023-03-02T08:05:46;10.73;;;5.10;;
16352;SDS011;8286;51.274;9.542;2023-03-02T08:08:12;7.67;;;4.73;;
16352;SDS011;8286;51.274;9.542;2023-03-02T08:10:39;7.93;;;4.33;;
16352;SDS011;8286;51.274;9.542;2023-03-02T08:13:05;7.20;;;4.73;;
16352;SDS011;8286;51.274;9.542;2023-03-02T08:15:32;7.73;;;4.50;;
16352;SDS011;8286;51.274;9.542;2023-03-02T08:17:58;8.53;;;4.17;;
16352;SDS011;8286;51.274;9.542;2023-03-02T08:20:25;7.83;;;4.77;;
16352;SDS011;8286;51.274;9.542;2023-03-02T08:22:53;7.67;;;4.60;;
16352;SDS011;8286;51.274;9.542;2023-03-02T08:25:19;8.60;;;4.57;;
16352;SDS011;8286;51.274;9.542;2023-03-02T08:27:46;7.23;;;4.00;;
16352;SDS011;8286;51.274;9.542;2023-03-02T08:30:13;9.67;;;5.07;;
16352;SDS011;8286;51.274;9.542;2023-03-02T08:32:39;6.57;;;4.13;;
16352;SDS011;8286;51.274;9.542;2023-03-02T08:35:06;6.27;;;4.27;;
16352;SDS011;8286;51.274;9.542;2023-03-02T08:37:34;5.57;;;3.97;;
16352;SDS011;8286;51.274;9.542;2023-03-02T08:40:02;11.27;;;5.07;;
16352;SDS011;8286;51.274;9.542;2023-03-02T08:42:29;7.33;;;4.30;;
16352;SDS011;8286;51.274;9.542;2023-03-02T08:44:55;11.30;;;5.03;;
16352;SDS011;8286;51.274;9.542;2023-03-02T08:47:21;7.77;;;4.10;;
16352;SDS011;8286;51.274;9.542;2023-03-02T08:49:48;8.90;;;4.23;;
16352;SDS011;8286;51.274;9.542;2023-03-02T08:52:15;6.60;;;4.23;;
16352;SDS011;8286;51.274;9.542;2023-03-02T08:54:42;8.00;;;5.03;;
16352;SDS011;8286;51.274;9.542;2023-03-02T08:57:10;8.53;;;3.97;;
16352;SDS011;8286;51.274;9.542;2023-03-02T08:59:37;7.20;;;4.33;;
16352;SDS011;8286;51.274;9.542;2023-03-02T09:02:03;6.80;;;3.77;;
16352;SDS011;8286;51.274;9.542;2023-03-02T09:04:30;9.30;;;4.40;;
16352;SDS011;8286;51.274;9.542;2023-03-02T09:06:57;7.67;;;3.50;;
16352;SDS011;8286;51.274;9.542;2023-03-02T09:09:23;6.43;;;4.20;;
16352;SDS011;8286;51.274;9.542;2023-03-02T09:11:50;5.60;;;3.87;;
16352;SDS011;8286;51.274;9.542;2023-03-02T09:14:17;9.20;;;3.70;;
16352;SDS011;8286;51.274;9.542;2023-03-02T09:16:44;5.73;;;3.80;;
16352;SDS011;8286;51.274;9.542;2023-03-02T09:19:11;6.40;;;3.93;;
16352;SDS011;8286;51.274;9.542;2023-03-02T09:21:38;4.40;;;3.20;;
16352;SDS011;8286;51.274;9.542;2023-03-02T09:24:05;4.83;;;3.83;;
16352;SDS011;8286;51.274;9.542;2023-03-02T09:26:31;7.43;;;3.30;;
16352;SDS011;8286;51.274;9.542;2023-03-02T09:28:58;6.93;;;4.23;;
16352;SDS011;8286;51.274;9.542;2023-03-02T09:31:26;6.57;;;3.73;;
16352;SDS011;8286;51.274;9.542;2023-03-02T09:33:53;7.00;;;4.00;;
16352;SDS011;8286;51.274;9.542;2023-03-02T09:36:21;6.47;;;3.87;;
16352;SDS011;8286;51.274;9.542;2023-03-02T09:38:49;7.50;;;4.17;;
16352;SDS011;8286;51.274;9.542;2023-03-02T09:41:26;6.47;;;3.33;;
16352;SDS011;8286;51.274;9.542;2023-03-02T09:44:01;7.23;;;3.80;;
16352;SDS011;8286;51.274;9.542;2023-03-02T09:46:33;5.63;;;3.40;;
16352;SDS011;8286;51.274;9.542;2023-03-02T09:49:06;6.73;;;4.27;;
16352;SDS011;8286;51.274;9.542;2023-03-02T09:51:42;5.73;;;3.57;;
16352;SDS011;8286;51.274;9.542;2023-03-02T09:54:12;10.37;;;3.73;;
16352;SDS011;8286;51.274;9.542;2023-03-02T09:56:41;4.83;;;3.67;;
16352;SDS011;8286;51.274;9.542;2023-03-02T09:59:14;5.00;;;3.80;;
16352;SDS011;8286;51.274;9.542;2023-03-02T10:01:49;8.33;;;3.60;;
16352;SDS011;8286;51.274;9.542;2023-03-02T10:04:20;6.03;;;3.77;;
16352;SDS011;8286;51.274;9.542;2023-03-02T10:06:50;4.87;;;3.97;;
16352;SDS011;8286;51.274;9.542;2023-03-02T10:09:21;4.30;;;3.77;;
16352;SDS011;8286;51.274;9.542;2023-03-02T10:14:51;4.90;;;3.23;;
16352;SDS011;8286;51.274;9.542;2023-03-02T10:17:27;5.90;;;3.60;;
16352;SDS011;8286;51.274;9.542;2023-03-02T10:20:02;4.80;;;3.80;;
16352;SDS011;8286;51.274;9.542;2023-03-02T10:22:31;5.00;;;3.83;;
16352;SDS011;8286;51.274;9.542;2023-03-02T10:25:03;5.45;;;4.07;;
16352;SDS011;8286;51.274;9.542;2023-03-02T10:27:39;4.25;;;3.28;;
16352;SDS011;8286;51.274;9.542;2023-03-02T10:30:13;4.40;;;3.55;;
16352;SDS011;8286;51.274;9.542;2023-03-02T10:32:44;4.20;;;3.30;;
16352;SDS011;8286;51.274;9.542;2023-03-02T10:35:15;6.13;;;3.60;;
16352;SDS011;8286;51.274;9.542;2023-03-02T10:37:43;4.33;;;3.50;;
16352;SDS011;8286;51.274;9.542;2023-03-02T10:40:10;5.67;;;3.93;;
16352;SDS011;8286;51.274;9.542;2023-03-02T10:42:53;5.00;;;3.70;;
16352;SDS011;8286;51.274;9.542;2023-03-02T10:45:22;5.97;;;3.93;;
16352;SDS011;8286;51.274;9.542;2023-03-02T10:47:59;5.77;;;3.50;;
16352;SDS011;8286;51.274;9.542;2023-03-02T10:50:26;4.90;;;3.40;;
16352;SDS011;8286;51.274;9.542;2023-03-02T10:52:54;7.37;;;3.30;;
16352;SDS011;8286;51.274;9.542;2023-03-02T10:55:21;4.60;;;3.37;;
16352;SDS011;8286;51.274;9.542;2023-03-02T10:57:57;5.50;;;3.70;;
16352;SDS011;8286;51.274;9.542;2023-03-02T11:00:26;5.07;;;3.73;;
16352;SDS011;8286;51.274;9.542;2023-03-02T11:02:54;4.17;;;3.50;;
16352;SDS011;8286;51.274;9.542;2023-03-02T11:05:30;5.93;;;3.27;;
16352;SDS011;8286;51.274;9.542;2023-03-02T11:07:57;6.57;;;3.90;;
16352;SDS011;8286;51.274;9.542;2023-03-02T11:10:25;4.43;;;3.50;;
16352;SDS011;8286;51.274;9.542;2023-03-02T11:12:55;6.45;;;3.92;;
16352;SDS011;8286;51.274;9.542;2023-03-02T11:15:23;4.30;;;3.40;;
16352;SDS011;8286;51.274;9.542;2023-03-02T11:17:58;7.03;;;4.10;;
16352;SDS011;8286;51.274;9.542;2023-03-02T11:20:29;6.40;;;4.15;;
16352;SDS011;8286;51.274;9.542;2023-03-02T11:23:00;5.10;;;4.13;;
16352;SDS011;8286;51.274;9.542;2023-03-02T11:25:32;4.70;;;3.78;;
16352;SDS011;8286;51.274;9.542;2023-03-02T11:28:01;5.63;;;3.83;;
16352;SDS011;8286;51.274;9.542;2023-03-02T11:30:30;5.47;;;3.95;;
16352;SDS011;8286;51.274;9.542;2023-03-02T11:33:01;4.72;;;4.22;;
16352;SDS011;8286;51.274;9.542;2023-03-02T11:35:32;6.50;;;3.78;;
16352;SDS011;8286;51.274;9.542;2023-03-02T11:38:02;6.63;;;4.05;;
16352;SDS011;8286;51.274;9.542;2023-03-02T11:40:32;5.57;;;3.90;;
16352;SDS011;8286;51.274;9.542;2023-03-02T11:43:01;5.75;;;4.07;;
16352;SDS011;8286;51.274;9.542;2023-03-02T11:45:30;3.88;;;3.22;;
16352;SDS011;8286;51.274;9.542;2023-03-02T11:47:59;5.07;;;3.60;;
16352;SDS011;8286;51.274;9.542;2023-03-02T11:50:27;6.72;;;3.92;;
16352;SDS011;8286;51.274;9.542;2023-03-02T11:52:58;4.07;;;3.67;;
16352;SDS011;8286;51.274;9.542;2023-03-02T11:55:27;4.20;;;3.75;;
16352;SDS011;8286;51.274;9.542;2023-03-02T11:57:55;7.72;;;3.90;;
16352;SDS011;8286;51.274;9.542;2023-03-02T12:00:26;6.50;;;3.92;;
16352;SDS011;8286;51.274;9.542;2023-03-02T12:03:02;4.97;;;3.83;;
16352;SDS011;8286;51.274;9.542;2023-03-02T12:05:30;7.88;;;3.90;;
16352;SDS011;8286;51.274;9.542;2023-03-02T12:08:03;6.00;;;4.03;;
16352;SDS011;8286;51.274;9.542;2023-03-02T12:10:32;4.90;;;3.65;;
16352;SDS011;8286;51.274;9.542;2023-03-02T12:13:05;6.40;;;3.60;;
16352;SDS011;8286;51.274;9.542;2023-03-02T12:15:38;6.70;;;3.75;;
16352;SDS011;8286;51.274;9.542;2023-03-02T12:18:25;4.93;;;3.50;;
16352;SDS011;8286;51.274;9.542;2023-03-02T12:21:20;6.63;;;3.97;;
16352;SDS011;8286;51.274;9.542;2023-03-02T12:23:56;5.70;;;3.90;;
16352;SDS011;8286;51.274;9.542;2023-03-02T12:26:32;4.63;;;4.20;;
16352;SDS011;8286;51.274;9.542;2023-03-02T12:29:01;4.53;;;3.95;;
16352;SDS011;8286;51.274;9.542;2023-03-02T12:31:40;4.95;;;3.88;;
16352;SDS011;8286;51.274;9.542;2023-03-02T12:34:21;5.72;;;3.97;;
16352;SDS011;8286;51.274;9.542;2023-03-02T12:36:52;5.50;;;4.10;;
16352;SDS011;8286;51.274;9.542;2023-03-02T12:39:24;4.90;;;3.97;;
16352;SDS011;8286;51.274;9.542;2023-03-02T12:42:11;5.93;;;4.13;;
16352;SDS011;8286;51.274;9.542;2023-03-02T12:44:56;5.00;;;3.58;;
16352;SDS011;8286;51.274;9.542;2023-03-02T12:47:28;6.22;;;4.13;;
16352;SDS011;8286;51.274;9.542;2023-03-02T12:49:55;4.43;;;3.60;;
16352;SDS011;8286;51.274;9.542;2023-03-02T12:52:27;7.15;;;4.93;;
16352;SDS011;8286;51.274;9.542;2023-03-02T12:55:04;5.65;;;3.80;;
16352;SDS011;8286;51.274;9.542;2023-03-02T12:57:32;6.65;;;3.75;;
16352;SDS011;8286;51.274;9.542;2023-03-02T13:00:00;6.43;;;3.90;;
16352;SDS011;8286;51.274;9.542;2023-03-02T13:02:28;5.88;;;4.07;;
16352;SDS011;8286;51.274;9.542;2023-03-02T13:04:56;4.18;;;3.78;;
16352;SDS011;8286;51.274;9.542;2023-03-02T13:07:25;6.10;;;3.83;;
16352;SDS011;8286;51.274;9.542;2023-03-02T13:09:53;5.00;;;3.72;;
16352;SDS011;8286;51.274;9.542;2023-03-02T13:12:22;5.80;;;3.85;;
16352;SDS011;8286;51.274;9.542;2023-03-02T13:14:51;4.90;;;3.65;;
16352;SDS011;8286;51.274;9.542;2023-03-02T13:17:23;5.22;;;3.70;;
16352;SDS011;8286;51.274;9.542;2023-03-02T13:19:53;3.95;;;3.38;;
16352;SDS011;8286;51.274;9.542;2023-03-02T13:22:20;5.45;;;3.22;;
16352;SDS011;8286;51.274;9.542;2023-03-02T13:24:53;4.50;;;3.55;;
16352;SDS011;8286;51.274;9.542;2023-03-02T13:27:23;5.93;;;3.58;;
16352;SDS011;8286;51.274;9.542;2023-03-02T13:29:50;4.57;;;3.53;;
16352;SDS011;8286;51.274;9.542;2023-03-02T13:32:18;5.70;;;3.57;;
16352;SDS011;8286;51.274;9.542;2023-03-02T13:34:47;4.73;;;3.70;;
16352;SDS011;8286;51.274;9.542;2023-03-02T13:37:17;8.23;;;3.87;;
16352;SDS011;8286;51.274;9.542;2023-03-02T13:39:52;5.60;;;3.60;;
16352;SDS011;8286;51.274;9.542;2023-03-02T13:42:25;6.18;;;3.10;;
16352;SDS011;8286;51.274;9.542;2023-03-02T13:44:53;5.27;;;3.60;;
16352;SDS011;8286;51.274;9.542;2023-03-02T13:47:20;5.57;;;3.80;;
16352;SDS011;8286;51.274;9.542;2023-03-02T13:49:48;6.85;;;3.67;;
16352;SDS011;8286;51.274;9.542;2023-03-02T13:52:16;8.03;;;3.67;;
16352;SDS011;8286;51.274;9.542;2023-03-02T13:54:47;5.37;;;3.27;;
16352;SDS011;8286;51.274;9.542;2023-03-02T13:57:15;6.83;;;3.90;;
16352;SDS011;8286;51.274;9.542;2023-03-02T13:59:43;4.37;;;3.70;;
16352;SDS011;8286;51.274;9.542;2023-03-02T14:02:13;4.83;;;3.73;;
16352;SDS011;8286;51.274;9.542;2023-03-02T14:04:46;5.30;;;3.30;;
16352;SDS011;8286;51.274;9.542;2023-03-02T14:07:12;5.63;;;3.57;;
16352;SDS011;8286;51.274;9.542;2023-03-02T14:09:39;3.77;;;3.27;;
16352;SDS011;8286;51.274;9.542;2023-03-02T14:12:05;4.47;;;3.30;;
16352;SDS011;8286;51.274;9.542;2023-03-02T14:14:32;6.77;;;3.33;;
16352;SDS011;8286;51.274;9.542;2023-03-02T14:17:05;4.73;;;3.63;;
16352;SDS011;8286;51.274;9.542;2023-03-02T14:19:37;3.97;;;3.07;;
16352;SDS011;8286;51.274;9.542;2023-03-02T14:22:03;4.63;;;3.37;;
16352;SDS011;8286;51.274;9.542;2023-03-02T14:24:30;5.13;;;3.50;;
16352;SDS011;8286;51.274;9.542;2023-03-02T14:26:56;5.87;;;3.30;;
16352;SDS011;8286;51.274;9.542;2023-03-02T14:29:23;4.70;;;3.23;;
16352;SDS011;8286;51.274;9.542;2023-03-02T14:31:51;4.97;;;3.33;;
16352;SDS011;8286;51.274;9.542;2023-03-02T14:34:20;5.07;;;3.20;;
16352;SDS011;8286;51.274;9.542;2023-03-02T14:36:47;5.00;;;3.20;;
16352;SDS011;8286;51.274;9.542;2023-03-02T14:39:17;5.10;;;3.20;;
16352;SDS011;8286;51.274;9.542;2023-03-02T14:41:45;6.60;;;3.73;;
16352;SDS011;8286;51.274;9.542;2023-03-02T14:44:12;5.70;;;2.67;;
16352;SDS011;8286;51.274;9.542;2023-03-02T14:46:39;5.37;;;3.13;;
16352;SDS011;8286;51.274;9.542;2023-03-02T14:49:07;3.67;;;3.10;;
16352;SDS011;8286;51.274;9.542;2023-03-02T14:51:35;7.67;;;3.27;;
16352;SDS011;8286;51.274;9.542;2023-03-02T14:54:03;3.90;;;2.77;;
16352;SDS011;8286;51.274;9.542;2023-03-02T14:56:31;5.40;;;3.20;;
16352;SDS011;8286;51.274;9.542;2023-03-02T14:58:58;3.60;;;3.00;;
16352;SDS011;8286;51.274;9.542;2023-03-02T15:01:25;3.17;;;2.40;;
16352;SDS011;8286;51.274;9.542;2023-03-02T15:03:51;5.37;;;3.20;;
16352;SDS011;8286;51.274;9.542;2023-03-02T15:06:23;4.93;;;2.77;;
16352;SDS011;8286;51.274;9.542;2023-03-02T15:08:52;4.70;;;2.67;;
16352;SDS011;8286;51.274;9.542;2023-03-02T15:11:20;4.23;;;2.90;;
16352;SDS011;8286;51.274;9.542;2023-03-02T15:13:46;4.40;;;2.63;;